createdAt,value
2022-09-21T00:01:09.647Z,73.19
2022-09-21T00:03:37.024Z,73.61
2022-09-21T00:06:08.415Z,73.70
2022-09-21T00:08:35.072Z,74.33
2022-09-21T00:11:03.558Z,74.14
2022-09-21T00:13:33.129Z,73.60
2022-09-21T00:15:59.787Z,72.76
2022-09-21T00:18:26.536Z,72.35
2022-09-21T00:20:53.044Z,72.28
2022-09-21T00:23:20.436Z,73.07
2022-09-21T00:25:47.089Z,72.89
2022-09-21T00:28:13.554Z,73.01
2022-09-21T00:30:39.997Z,73.33
2022-09-21T00:33:06.971Z,73.13
2022-09-21T00:35:33.821Z,72.81
2022-09-21T00:38:02.445Z,72.42
2022-09-21T00:40:29.912Z,72.47
2022-09-21T00:43:16.923Z,73.05
2022-09-21T00:45:44.132Z,73.29
2022-09-21T00:48:10.753Z,72.34
2022-09-21T00:50:41.477Z,72.81
2022-09-21T00:53:08.169Z,72.52
2022-09-21T00:55:39.895Z,71.82
2022-09-21T00:58:10.124Z,73.04
2022-09-21T01:00:37.455Z,72.36
2022-09-21T01:03:04.952Z,71.89
2022-09-21T01:05:31.585Z,71.65
2022-09-21T01:08:02.087Z,73.29
2022-09-21T01:10:33.099Z,73.28
2022-09-21T01:13:25.407Z,72.70
2022-09-21T01:16:01.553Z,72.11
2022-09-21T01:18:35.310Z,72.76
2022-09-21T01:21:21.686Z,74.18
2022-09-21T01:24:21.259Z,73.59
2022-09-21T01:27:09.305Z,73.68
2022-09-21T01:29:38.419Z,73.69
2022-09-21T01:32:15.501Z,72.52
2022-09-21T01:34:49.327Z,72.99
2022-09-21T01:37:26.832Z,73.21
2022-09-21T01:39:56.695Z,73.30
2022-09-21T01:42:24.990Z,72.78
2022-09-21T01:44:51.951Z,72.98
2022-09-21T01:47:18.778Z,73.73
2022-09-21T01:49:49.131Z,72.71
2022-09-21T01:52:21.550Z,73.53
2022-09-21T01:54:52.098Z,73.12
2022-09-21T01:57:36.728Z,73.76
2022-09-21T02:00:05.809Z,72.83
2022-09-21T02:02:41.761Z,73.78
2022-09-21T02:05:08.694Z,73.56
2022-09-21T02:07:35.957Z,73.96
2022-09-21T02:10:03.098Z,72.50
2022-09-21T02:12:32.174Z,72.91
2022-09-21T02:14:59.895Z,72.46
2022-09-21T02:17:50.212Z,72.71
2022-09-21T02:20:30.564Z,72.74
2022-09-21T02:23:14.271Z,72.37
2022-09-21T02:25:43.817Z,73.02
2022-09-21T02:28:27.260Z,72.64
2022-09-21T02:31:17.883Z,72.86
2022-09-21T02:33:59.347Z,72.26
2022-09-21T02:36:35.627Z,72.05
2022-09-21T02:39:11.516Z,71.54
2022-09-21T02:41:41.517Z,72.43
2022-09-21T02:44:13.176Z,72.44
2022-09-21T02:46:49.148Z,72.00
2022-09-21T02:49:26.341Z,72.26
2022-09-21T02:51:56.792Z,72.76
2022-09-21T02:54:27.057Z,71.67
2022-09-21T02:56:54.533Z,72.67
2022-09-21T02:59:23.678Z,72.65
2022-09-21T03:01:50.650Z,72.37
2022-09-21T03:04:17.631Z,72.26
2022-09-21T03:06:44.076Z,71.93
2022-09-21T03:09:10.542Z,71.79
2022-09-21T03:11:36.983Z,72.68
2022-09-21T03:14:08.618Z,72.83
2022-09-21T03:16:36.252Z,71.92
2022-09-21T03:19:02.797Z,72.59
2022-09-21T03:21:29.754Z,71.83
2022-09-21T03:23:56.224Z,71.20
2022-09-21T03:26:22.898Z,71.85
2022-09-21T03:28:50.324Z,71.84
2022-09-21T03:31:17.111Z,72.42
2022-09-21T03:33:43.649Z,72.13
2022-09-21T03:36:10.355Z,72.50
2022-09-21T03:38:37.803Z,71.99
2022-09-21T03:41:05.113Z,72.40
2022-09-21T03:43:32.227Z,72.35
2022-09-21T03:45:58.786Z,72.82
2022-09-21T03:48:25.293Z,72.26
2022-09-21T03:50:51.913Z,72.93
2022-09-21T03:53:18.374Z,72.26
2022-09-21T03:55:44.870Z,72.26
2022-09-21T03:58:11.315Z,71.91
2022-09-21T04:00:39.207Z,72.30
2022-09-21T04:03:05.732Z,72.39
2022-09-21T04:05:32.442Z,73.13
2022-09-21T04:07:58.926Z,72.28
2022-09-21T04:10:29.295Z,71.90
2022-09-21T04:13:01.263Z,70.83
2022-09-21T04:15:28.547Z,71.59
2022-09-21T04:17:55.476Z,71.87
2022-09-21T04:20:22.291Z,71.81
2022-09-21T04:22:48.944Z,71.90
2022-09-21T04:25:16.183Z,72.08
2022-09-21T04:27:42.848Z,71.80
2022-09-21T04:30:12.149Z,71.49
2022-09-21T04:32:38.938Z,71.66
2022-09-21T04:35:06.118Z,70.76
2022-09-21T04:37:32.591Z,71.65
2022-09-21T04:39:59.129Z,71.41
2022-09-21T04:42:27.603Z,71.21
2022-09-21T04:44:54.151Z,71.14
2022-09-21T04:47:23.643Z,71.34
2022-09-21T04:49:50.273Z,71.59
2022-09-21T04:52:19.158Z,70.74
2022-09-21T04:54:47.097Z,71.41
2022-09-21T04:57:14.796Z,71.71
2022-09-21T04:59:41.288Z,71.43
2022-09-21T05:02:07.775Z,71.16
2022-09-21T05:04:34.249Z,71.93
2022-09-21T05:07:00.845Z,71.51
2022-09-21T05:09:45.965Z,71.33
2022-09-21T05:12:12.428Z,71.32
2022-09-21T05:14:38.889Z,71.02
2022-09-21T05:17:05.402Z,70.56
2022-09-21T05:19:31.900Z,70.82
2022-09-21T05:21:58.369Z,71.41
2022-09-21T05:24:24.875Z,71.22
2022-09-21T05:26:51.356Z,71.32
2022-09-21T05:29:18.204Z,71.33
2022-09-21T05:31:56.166Z,71.58
2022-09-21T05:34:44.124Z,70.35
2022-09-21T05:37:37.854Z,71.20
2022-09-21T05:40:05.672Z,71.44
2022-09-21T05:42:32.797Z,71.85
2022-09-21T05:44:59.678Z,71.76
2022-09-21T05:47:40.127Z,71.85
2022-09-21T05:50:28.245Z,71.59
2022-09-21T05:53:16.299Z,71.18
2022-09-21T05:55:55.558Z,70.95
2022-09-21T05:58:40.602Z,70.64
2022-09-21T06:01:18.117Z,71.09
2022-09-21T06:03:44.956Z,71.25
2022-09-21T06:06:11.428Z,71.23
2022-09-21T06:08:37.908Z,71.49
2022-09-21T06:11:04.526Z,71.18
2022-09-21T06:13:31.204Z,70.58
2022-09-21T06:15:58.543Z,71.63
2022-09-21T06:18:24.990Z,73.35
2022-09-21T06:20:51.484Z,72.85
2022-09-21T06:23:24.169Z,73.07
2022-09-21T06:25:58.184Z,72.75
2022-09-21T06:28:25.533Z,72.04
2022-09-21T06:30:53.395Z,72.96
2022-09-21T06:33:21.307Z,72.66
2022-09-21T06:35:59.177Z,73.21
2022-09-21T06:38:26.836Z,73.85
2022-09-21T06:40:53.887Z,73.85
2022-09-21T06:43:20.433Z,73.99
2022-09-21T06:45:54.836Z,73.02
2022-09-21T06:48:21.808Z,72.90
2022-09-21T06:50:48.611Z,72.09
2022-09-21T06:53:15.517Z,72.99
2022-09-21T06:55:42.222Z,72.75
2022-09-21T06:58:08.729Z,72.90
2022-09-21T07:00:35.586Z,73.24
2022-09-21T07:03:02.048Z,74.23
2022-09-21T07:05:28.515Z,73.89
2022-09-21T07:07:59.158Z,74.57
2022-09-21T07:10:26.358Z,75.44
2022-09-21T07:12:52.980Z,76.58
2022-09-21T07:15:19.628Z,75.41
2022-09-21T07:17:51.777Z,76.16
2022-09-21T07:20:18.832Z,75.72
2022-09-21T07:22:45.263Z,76.47
2022-09-21T07:25:11.835Z,77.63
2022-09-21T07:27:38.682Z,75.64
2022-09-21T07:30:06.428Z,75.75
2022-09-21T07:32:33.024Z,76.36
2022-09-21T07:34:59.542Z,79.69
2022-09-21T07:37:26.267Z,78.56
2022-09-21T07:39:53.391Z,75.95
2022-09-21T07:42:21.558Z,74.01
2022-09-21T07:44:48.447Z,74.31
2022-09-21T07:47:15.417Z,74.56
2022-09-21T07:49:42.688Z,73.35
2022-09-21T07:52:11.103Z,72.78
2022-09-21T07:54:37.902Z,71.83
2022-09-21T07:57:22.957Z,71.45
2022-09-21T07:59:49.433Z,71.06
2022-09-21T08:02:16.123Z,71.59
2022-09-21T08:04:42.633Z,70.04
2022-09-21T08:07:09.107Z,74.64
2022-09-21T08:09:35.592Z,71.42
2022-09-21T08:12:02.280Z,69.77
2022-09-21T08:14:29.360Z,68.47
2022-09-21T08:16:55.894Z,69.07
2022-09-21T08:19:25.840Z,65.98
2022-09-21T08:21:57.274Z,68.17
2022-09-21T08:24:26.745Z,66.13
2022-09-21T08:26:54.031Z,64.53
2022-09-21T08:29:20.525Z,66.12
2022-09-21T08:31:47.389Z,65.17
2022-09-21T08:34:14.343Z,63.94
2022-09-21T08:36:41.137Z,63.15
2022-09-21T08:39:08.453Z,63.08
2022-09-21T08:41:59.341Z,62.00
2022-09-21T08:44:33.599Z,60.54
2022-09-21T08:47:08.482Z,60.21
2022-09-21T08:49:36.881Z,57.93
2022-09-21T08:52:07.400Z,57.62
2022-09-21T08:54:51.780Z,58.67
2022-09-21T08:57:19.110Z,60.37
2022-09-21T08:59:47.266Z,58.96
2022-09-21T09:02:41.037Z,58.28
2022-09-21T09:05:48.651Z,56.10
2022-09-21T09:08:24.306Z,55.24
2022-09-21T09:11:09.353Z,56.16
2022-09-21T09:13:48.538Z,54.34
2022-09-21T09:16:21.184Z,52.74
2022-09-21T09:18:51.813Z,51.71
2022-09-21T09:21:30.255Z,52.04
2022-09-21T09:24:20.623Z,51.88
2022-09-21T09:27:02.115Z,50.43
2022-09-21T09:29:28.520Z,49.89
2022-09-21T09:31:55.985Z,52.57
2022-09-21T09:34:26.604Z,53.08
2022-09-21T09:36:59.600Z,50.94
2022-09-21T09:39:28.486Z,49.92
2022-09-21T09:42:07.238Z,50.97
2022-09-21T09:45:18.352Z,47.35
2022-09-21T09:47:50.715Z,48.19
2022-09-21T09:50:32.686Z,48.14
2022-09-21T09:53:15.141Z,45.49
2022-09-21T09:55:45.337Z,45.98
2022-09-21T09:58:31.007Z,44.70
2022-09-21T10:00:58.958Z,44.41
2022-09-21T10:03:27.172Z,44.91
2022-09-21T10:06:11.966Z,44.57
2022-09-21T10:08:39.921Z,44.43
2022-09-21T10:11:06.498Z,43.74
2022-09-21T10:13:38.318Z,44.15
2022-09-21T10:16:25.114Z,45.17
2022-09-21T10:18:58.899Z,44.61
2022-09-21T10:21:35.553Z,45.21
2022-09-21T10:24:05.073Z,42.45
2022-09-21T10:26:34.901Z,43.62
2022-09-21T10:29:07.287Z,42.67
2022-09-21T10:31:34.463Z,41.61
2022-09-21T10:34:04.034Z,41.69
2022-09-21T10:36:35.744Z,41.59
2022-09-21T10:39:19.530Z,41.59
2022-09-21T10:41:59.424Z,41.98
2022-09-21T10:44:38.711Z,41.52
2022-09-21T10:47:31.326Z,41.71
2022-09-21T10:50:00.685Z,41.37
2022-09-21T10:52:40.282Z,39.94
2022-09-21T10:55:14.554Z,41.03
2022-09-21T10:57:42.201Z,39.84
2022-09-21T11:00:35.700Z,41.07
2022-09-21T11:03:26.784Z,41.43
2022-09-21T11:05:53.659Z,37.70
2022-09-21T11:08:35.927Z,37.86
2022-09-21T11:11:30.361Z,34.34
2022-09-21T11:14:06.201Z,35.78
2022-09-21T11:16:37.708Z,35.86
2022-09-21T11:19:28.694Z,36.81
2022-09-21T11:22:05.830Z,35.61
2022-09-21T11:24:51.935Z,35.67
2022-09-21T11:27:22.956Z,34.60
2022-09-21T11:30:00.462Z,35.22
2022-09-21T11:32:40.528Z,34.59
2022-09-21T11:35:27.310Z,35.04
2022-09-21T11:38:20.685Z,34.37
2022-09-21T11:41:00.698Z,34.41
2022-09-21T11:43:36.119Z,34.74
2022-09-21T11:46:27.528Z,33.66
2022-09-21T11:49:00.062Z,34.28
2022-09-21T11:51:38.839Z,33.80
2022-09-21T11:54:31.698Z,35.38
2022-09-21T11:57:19.078Z,36.47
2022-09-21T12:00:07.545Z,38.67
2022-09-21T12:02:59.437Z,37.89
2022-09-21T12:06:04.712Z,35.80
2022-09-21T12:09:01.321Z,34.28
2022-09-21T12:12:03.701Z,33.34
2022-09-21T12:14:42.648Z,35.34
2022-09-21T12:17:27.663Z,38.65
2022-09-21T12:20:20.934Z,40.76
2022-09-21T12:22:49.542Z,42.12
2022-09-21T12:25:27.441Z,43.41
2022-09-21T12:28:11.529Z,44.91
2022-09-21T12:30:39.908Z,44.73
2022-09-21T12:33:14.060Z,46.23
2022-09-21T12:36:10.419Z,46.28
2022-09-21T12:38:43.048Z,46.44
2022-09-21T12:41:34.422Z,45.90
2022-09-21T12:44:17.720Z,45.30
2022-09-21T12:46:49.075Z,46.51
2022-09-21T12:49:31.537Z,46.61
2022-09-21T12:52:03.653Z,47.75
2022-09-21T12:54:42.201Z,46.93
2022-09-21T12:57:42.517Z,47.70
2022-09-21T13:00:12.360Z,47.43
2022-09-21T13:02:50.865Z,47.90
2022-09-21T13:05:23.364Z,48.36
2022-09-21T13:08:04.946Z,47.76
2022-09-21T13:10:55.717Z,46.84
2022-09-21T13:13:26.900Z,46.86
2022-09-21T13:15:53.752Z,47.54
2022-09-21T13:18:35.091Z,47.81
2022-09-21T13:21:22.094Z,48.87
2022-09-21T13:23:56.832Z,48.42
2022-09-21T13:26:51.437Z,48.69
2022-09-21T13:29:18.939Z,47.11
2022-09-21T13:32:04.448Z,45.88
2022-09-21T13:34:35.249Z,44.86
2022-09-21T13:37:20.060Z,42.66
2022-09-21T13:40:01.875Z,43.23
2022-09-21T13:42:28.517Z,43.17
2022-09-21T13:44:55.998Z,44.17
2022-09-21T13:47:33.681Z,43.37
2022-09-21T13:50:03.223Z,42.19
2022-09-21T13:52:40.453Z,44.53
2022-09-21T13:55:22.831Z,44.96
2022-09-21T13:57:54.373Z,46.88
2022-09-21T14:00:28.005Z,46.86
2022-09-21T14:02:58.803Z,46.82
2022-09-21T14:05:27.061Z,47.63
2022-09-21T14:08:00.167Z,46.68
2022-09-21T14:10:27.364Z,48.22
2022-09-21T14:12:53.856Z,47.61
2022-09-21T14:15:20.246Z,47.80
2022-09-21T14:18:16.788Z,49.67
2022-09-21T14:21:08.217Z,47.53
2022-09-21T14:23:36.630Z,46.66
2022-09-21T14:26:21.124Z,46.31
2022-09-21T14:28:51.356Z,46.31
2022-09-21T14:31:26.289Z,44.60
2022-09-21T14:33:59.394Z,45.29
2022-09-21T14:36:42.042Z,46.02
2022-09-21T14:39:39.185Z,47.52
2022-09-21T14:42:15.892Z,44.94
2022-09-21T14:44:42.600Z,45.47
2022-09-21T14:47:18.465Z,45.77
2022-09-21T14:50:05.568Z,46.94
2022-09-21T14:52:42.214Z,45.05
2022-09-21T14:55:22.634Z,44.13
2022-09-21T14:58:17.141Z,44.32
2022-09-21T15:00:46.251Z,45.48
2022-09-21T15:03:39.241Z,44.76
2022-09-21T15:06:28.700Z,45.13
2022-09-21T15:09:29.455Z,45.41
2022-09-21T15:12:01.996Z,46.33
2022-09-21T15:14:36.792Z,46.69
2022-09-21T15:17:24.355Z,46.30
2022-09-21T15:20:02.938Z,48.23
2022-09-21T15:22:47.711Z,48.78
2022-09-21T15:25:20.278Z,48.02
2022-09-21T15:27:47.440Z,47.59
2022-09-21T15:30:26.268Z,46.91
2022-09-21T15:32:58.126Z,46.50
2022-09-21T15:35:30.452Z,46.00
2022-09-21T15:38:00.946Z,45.80
2022-09-21T15:40:36.553Z,45.59
2022-09-21T15:43:09.019Z,46.40
2022-09-21T15:45:55.736Z,47.54
2022-09-21T15:48:26.091Z,48.16
2022-09-21T15:50:57.908Z,48.98
2022-09-21T15:53:36.475Z,49.26
2022-09-21T15:56:03.089Z,47.95
2022-09-21T15:58:37.298Z,47.90
2022-09-21T16:01:15.817Z,48.13
2022-09-21T16:03:45.364Z,48.52
2022-09-21T16:06:28.382Z,49.42
2022-09-21T16:08:55.118Z,49.25
2022-09-21T16:11:25.668Z,51.78
2022-09-21T16:14:32.053Z,52.58
2022-09-21T16:17:13.756Z,52.50
2022-09-21T16:19:44.580Z,53.59
2022-09-21T16:22:17.559Z,53.22
2022-09-21T16:24:52.829Z,53.70
2022-09-21T16:27:21.427Z,54.23
2022-09-21T16:29:50.177Z,54.92
2022-09-21T16:32:28.138Z,54.40
2022-09-21T16:35:31.461Z,54.19
2022-09-21T16:37:58.915Z,54.57
2022-09-21T16:40:28.815Z,54.87
2022-09-21T16:42:56.074Z,54.52
2022-09-21T16:45:29.672Z,54.28
2022-09-21T16:47:57.630Z,54.48
2022-09-21T16:50:24.534Z,53.67
2022-09-21T16:52:52.507Z,54.79
2022-09-21T16:55:22.419Z,54.84
2022-09-21T16:57:50.830Z,54.32
2022-09-21T17:00:22.101Z,54.26
2022-09-21T17:02:48.929Z,53.95
2022-09-21T17:05:39.210Z,54.20
2022-09-21T17:08:28.719Z,54.12
2022-09-21T17:22:22.480Z,54.83
2022-09-21T17:25:20.250Z,54.68
2022-09-21T17:27:54.446Z,54.86
2022-09-21T17:34:15.165Z,55.84
2022-09-21T17:37:00.631Z,56.69
2022-09-21T17:39:30.206Z,56.59
2022-09-21T17:45:43.061Z,58.61
2022-09-21T17:51:07.419Z,57.86
2022-09-21T17:53:41.876Z,58.00
2022-09-21T17:56:26.022Z,57.62
2022-09-21T17:59:14.701Z,57.54
2022-09-21T18:12:16.353Z,58.58
2022-09-21T18:14:55.772Z,58.07
2022-09-21T18:18:05.272Z,59.35
2022-09-21T18:32:06.716Z,59.81
2022-09-21T18:35:13.529Z,59.74
2022-09-21T18:37:55.161Z,59.46
2022-09-21T18:40:36.714Z,60.60
2022-09-21T18:43:36.417Z,60.92
2022-09-21T18:46:20.810Z,60.21
2022-09-21T18:49:13.775Z,60.35
2022-09-21T18:51:47.321Z,60.69
2022-09-21T18:54:20.849Z,60.76
2022-09-21T18:59:42.835Z,61.14
2022-09-21T19:06:11.984Z,61.48
2022-09-21T19:08:54.389Z,62.56
2022-09-21T19:11:52.202Z,63.40
2022-09-21T19:14:37.185Z,63.62
2022-09-21T19:17:20.784Z,62.89
2022-09-21T19:20:25.173Z,63.50
2022-09-21T19:23:00.259Z,64.31
2022-09-21T19:25:47.288Z,64.61
2022-09-21T19:28:53.521Z,64.21
2022-09-21T19:31:20.531Z,65.12
2022-09-21T19:33:51.651Z,64.34
2022-09-21T19:36:19.308Z,64.44
2022-09-21T19:38:45.973Z,64.88
2022-09-21T19:41:31.677Z,65.53
2022-09-21T19:44:35.899Z,65.48
2022-09-21T19:47:18.473Z,65.24
2022-09-21T19:49:56.617Z,65.92
2022-09-21T19:52:32.172Z,65.13
2022-09-21T19:55:17.266Z,65.60
2022-09-21T19:58:02.886Z,66.66
2022-09-21T20:00:30.218Z,66.40
2022-09-21T20:03:03.856Z,66.56
2022-09-21T20:05:51.617Z,68.03
2022-09-21T20:08:50.192Z,67.53
2022-09-21T20:11:23.520Z,67.30
2022-09-21T20:14:30.101Z,68.19
2022-09-21T20:17:10.660Z,67.94
2022-09-21T20:19:40.066Z,67.66
2022-09-21T20:22:17.433Z,67.76
2022-09-21T20:25:03.666Z,67.65
2022-09-21T20:27:55.504Z,67.90
2022-09-21T20:30:24.507Z,68.52
2022-09-21T20:32:53.733Z,67.53
2022-09-21T20:35:31.168Z,67.70
2022-09-21T20:38:02.184Z,68.90
2022-09-21T20:40:33.212Z,68.29
2022-09-21T20:43:03.916Z,69.30
2022-09-21T20:45:33.637Z,68.21
2022-09-21T20:48:15.731Z,68.90
2022-09-21T20:50:49.445Z,68.80
2022-09-21T20:53:16.742Z,69.10
2022-09-21T20:55:55.438Z,69.03
2022-09-21T20:58:22.392Z,69.15
2022-09-21T21:00:52.203Z,69.90
2022-09-21T21:03:20.596Z,69.58
2022-09-21T21:05:47.071Z,69.61
2022-09-21T21:08:13.536Z,70.65
2022-09-21T21:10:46.986Z,69.98
2022-09-21T21:13:13.698Z,69.88
2022-09-21T21:15:40.161Z,69.11
2022-09-21T21:18:10.157Z,69.82
2022-09-21T21:21:14.020Z,69.99
2022-09-21T21:23:59.064Z,69.87
2022-09-21T21:26:44.209Z,69.63
2022-09-21T21:29:15.004Z,69.79
2022-09-21T21:31:53.907Z,69.79
2022-09-21T21:34:20.764Z,70.08
2022-09-21T21:36:47.205Z,70.64
2022-09-21T21:39:14.331Z,69.81
2022-09-21T21:41:43.229Z,69.97
2022-09-21T21:44:11.520Z,70.05
2022-09-21T21:46:38.140Z,70.10
2022-09-21T21:49:05.045Z,69.93
2022-09-21T21:51:31.599Z,69.98
2022-09-21T21:53:58.240Z,70.50
2022-09-21T21:56:24.721Z,70.75
2022-09-21T21:58:56.134Z,70.66
2022-09-21T22:01:26.322Z,70.26
2022-09-21T22:03:58.162Z,70.82
2022-09-21T22:06:25.671Z,70.79
2022-09-21T22:08:52.744Z,70.74
2022-09-21T22:11:19.941Z,71.09
2022-09-21T22:13:47.347Z,71.48
2022-09-21T22:16:16.268Z,71.08
2022-09-21T22:18:43.346Z,71.36
2022-09-21T22:21:15.212Z,70.76
2022-09-21T22:23:42.196Z,71.04
2022-09-21T22:26:14.177Z,70.56
2022-09-21T22:28:42.512Z,70.40
2022-09-21T22:31:18.048Z,71.08
2022-09-21T22:33:45.164Z,70.08
2022-09-21T22:36:19.470Z,70.46
2022-09-21T22:38:46.559Z,70.62
2022-09-21T22:41:22.715Z,72.20
2022-09-21T22:43:51.300Z,71.14
2022-09-21T22:46:18.271Z,71.34
2022-09-21T22:48:45.514Z,72.27
2022-09-21T22:51:16.226Z,71.08
2022-09-21T22:53:43.252Z,71.10
2022-09-21T22:56:11.721Z,70.77
2022-09-21T22:58:42.111Z,70.72
2022-09-21T23:01:12.600Z,72.08
2022-09-21T23:03:40.508Z,71.84
2022-09-21T23:06:09.625Z,72.55
2022-09-21T23:08:36.375Z,72.53
2022-09-21T23:11:23.570Z,72.13
2022-09-21T23:13:50.037Z,72.04
2022-09-21T23:16:17.968Z,72.00
2022-09-21T23:18:45.945Z,74.40
2022-09-21T23:21:17.369Z,72.61
2022-09-21T23:24:05.834Z,73.25
2022-09-21T23:26:33.091Z,73.48
2022-09-21T23:29:05.334Z,73.63
2022-09-21T23:31:32.367Z,73.04
2022-09-21T23:34:00.610Z,72.30
2022-09-21T23:36:28.890Z,72.27
2022-09-21T23:38:55.680Z,71.93
2022-09-21T23:41:24.376Z,72.37
2022-09-21T23:43:51.573Z,71.93
2022-09-21T23:46:21.414Z,73.05
2022-09-21T23:48:48.550Z,73.21
2022-09-21T23:51:15.537Z,73.43
2022-09-21T23:53:42.613Z,72.43
2022-09-21T23:56:14.122Z,72.46
2022-09-21T23:58:40.659Z,72.48
